createdAt,value
2023-04-27T00:05:42.351Z,0
2023-04-27T00:09:45.875Z,0
2023-04-27T00:11:47.138Z,0
2023-04-27T00:15:50.052Z,0
2023-04-27T00:21:55.482Z,0
2023-04-27T00:25:58.913Z,0
2023-04-27T00:27:59.951Z,0
2023-04-27T00:32:03.400Z,0
2023-04-27T00:36:06.382Z,0
2023-04-27T00:38:08.313Z,0
2023-04-27T00:42:11.790Z,0
2023-04-27T00:46:14.931Z,0
2023-04-27T00:48:16.151Z,0
2023-04-27T00:52:18.927Z,0
2023-04-27T00:54:20.507Z,0
2023-04-27T00:56:22.358Z,0
2023-04-27T00:58:23.452Z,0
2023-04-27T01:04:28.182Z,0
2023-04-27T01:06:29.909Z,0
2023-04-27T01:10:32.786Z,0
2023-04-27T01:14:36.106Z,0
2023-04-27T01:20:40.005Z,0
2023-04-27T01:24:43.401Z,0
2023-04-27T01:28:47.361Z,0
2023-04-27T01:30:48.748Z,0
2023-04-27T01:34:51.671Z,0
2023-04-27T01:36:52.822Z,0
2023-04-27T01:38:54.773Z,0
2023-04-27T01:40:56.611Z,0
2023-04-27T01:47:01.037Z,0
2023-04-27T01:49:02.604Z,0
2023-04-27T01:53:05.539Z,0
2023-04-27T01:57:07.958Z,0
2023-04-27T02:03:12.346Z,0
2023-04-27T02:07:16.146Z,0
2023-04-27T02:09:17.715Z,0
2023-04-27T02:13:20.715Z,0.702
2023-04-27T02:17:23.015Z,0
2023-04-27T02:19:24.672Z,0
2023-04-27T02:23:28.386Z,0
2023-04-27T02:29:32.905Z,0
2023-04-27T02:35:37.701Z,0
2023-04-27T02:39:40.841Z,0
2023-04-27T02:45:45.336Z,0
2023-04-27T02:49:48.171Z,0
2023-04-27T02:51:49.770Z,0
2023-04-27T02:55:53.351Z,0
2023-04-27T02:59:56.681Z,0
2023-04-27T03:01:58.610Z,0
2023-04-27T03:06:02.001Z,0
2023-04-27T03:12:06.266Z,0
2023-04-27T03:16:08.974Z,0
2023-04-27T03:18:18.708Z,0
2023-04-27T03:22:13.059Z,0
2023-04-27T03:28:17.276Z,0
2023-04-27T03:32:41.468Z,0
2023-04-27T03:34:22.716Z,0
2023-04-27T03:38:26.409Z,0
2023-04-27T03:44:30.438Z,0
2023-04-27T03:48:33.034Z,0
2023-04-27T03:54:37.928Z,0
2023-04-27T03:58:41.417Z,0
2023-04-27T04:00:42.790Z,0
2023-04-27T04:04:45.938Z,0
2023-04-27T04:10:50.356Z,0
2023-04-27T04:14:53.157Z,0
2023-04-27T04:16:55.000Z,0
2023-04-27T04:19:40.968Z,0
2023-04-27T04:21:43.035Z,0
2023-04-27T04:25:46.250Z,0
2023-04-27T04:29:49.884Z,0
2023-04-27T04:31:51.609Z,0
2023-04-27T04:35:54.990Z,0
2023-04-27T04:37:56.077Z,0
2023-04-27T04:41:59.374Z,0
2023-04-27T04:48:04.597Z,0
2023-04-27T04:52:07.367Z,0
2023-04-27T04:54:09.395Z,0
2023-04-27T04:58:12.046Z,0
2023-04-27T05:02:14.877Z,0
2023-04-27T05:04:16.097Z,0
2023-04-27T05:08:18.986Z,1.684
2023-04-27T05:12:21.987Z,0
2023-04-27T05:14:23.227Z,0
2023-04-27T05:18:26.124Z,0
2023-04-27T05:20:28.028Z,0
2023-04-27T05:22:30.020Z,0
2023-04-27T05:24:31.219Z,0
2023-04-27T05:30:34.980Z,0
2023-04-27T05:36:39.605Z,0
2023-04-27T05:40:42.570Z,0
2023-04-27T05:46:46.881Z,0
2023-04-27T05:50:49.819Z,0
2023-04-27T05:52:51.613Z,0
2023-04-27T05:56:54.087Z,0
2023-04-27T06:00:57.542Z,0
2023-04-27T06:02:58.775Z,0
2023-04-27T06:07:02.041Z,0
2023-04-27T06:13:06.652Z,0
2023-04-27T06:19:09.989Z,0
2023-04-27T06:23:13.489Z,0
2023-04-27T06:29:17.610Z,0
2023-04-27T06:33:20.619Z,0
2023-04-27T06:35:21.994Z,0
2023-04-27T06:39:25.024Z,0
2023-04-27T06:43:28.239Z,0.842
2023-04-27T06:45:29.752Z,1.123
2023-04-27T06:49:33.279Z,0.421
2023-04-27T06:55:38.062Z,0.28
2023-04-27T06:59:40.986Z,0
2023-04-27T07:01:42.186Z,1.404
2023-04-27T07:05:44.578Z,0
2023-04-27T07:11:49.414Z,0
2023-04-27T07:15:51.763Z,0
2023-04-27T07:17:53.487Z,0
2023-04-27T07:21:56.163Z,0
2023-04-27T07:25:58.933Z,1.123
2023-04-27T07:27:59.873Z,0
2023-04-27T07:32:03.114Z,0
2023-04-27T07:38:08.714Z,1.825
2023-04-27T07:42:11.146Z,0
2023-04-27T07:44:12.353Z,0
2023-04-27T07:48:15.482Z,0.561
2023-04-27T07:54:20.047Z,0.842
2023-04-27T07:58:22.381Z,0.702
2023-04-27T08:00:23.638Z,0
2023-04-27T08:04:26.885Z,1.544
2023-04-27T08:08:28.727Z,1.965
2023-04-27T08:10:30.160Z,0.982
2023-04-27T08:14:33.499Z,0.982
2023-04-27T08:18:35.752Z,2.246
2023-04-27T08:20:37.032Z,0.28
2023-04-27T08:24:39.784Z,0.702
2023-04-27T08:26:41.490Z,0.702
2023-04-27T08:28:42.470Z,0.842
2023-04-27T08:30:43.497Z,0
2023-04-27T08:36:46.615Z,2.667
2023-04-27T08:42:51.547Z,1.263
2023-04-27T08:46:54.107Z,1.825
2023-04-27T08:52:57.496Z,0.28
2023-04-27T08:56:59.949Z,1.825
2023-04-27T08:59:01.114Z,2.106
2023-04-27T09:03:03.839Z,3.229
2023-04-27T09:07:06.433Z,3.931
2023-04-27T09:09:08.168Z,1.825
2023-04-27T09:13:11.884Z,2.808
2023-04-27T09:19:16.618Z,0
2023-04-27T09:23:19.682Z,2.106
2023-04-27T09:25:21.386Z,2.106
2023-04-27T09:29:23.815Z,3.931
2023-04-27T09:35:28.144Z,2.386
2023-04-27T09:37:29.928Z,1.123
2023-04-27T09:39:30.911Z,2.246
2023-04-27T09:41:31.836Z,0.982
2023-04-27T09:45:34.654Z,1.263
2023-04-27T09:49:38.949Z,2.667
2023-04-27T09:51:40.449Z,2.386
2023-04-27T09:55:43.423Z,3.931
2023-04-27T10:01:47.967Z,1.544
2023-04-27T10:05:50.661Z,2.527
2023-04-27T10:07:51.654Z,3.79
2023-04-27T10:11:55.508Z,2.948
2023-04-27T10:17:59.430Z,1.123
2023-04-27T10:22:02.521Z,0
2023-04-27T10:24:03.652Z,0.14
2023-04-27T10:28:06.042Z,2.948
2023-04-27T10:32:08.475Z,1.825
2023-04-27T10:34:09.373Z,3.51
2023-04-27T10:38:11.810Z,1.263
2023-04-27T10:42:14.676Z,3.931
2023-04-27T10:44:16.517Z,6.598
2023-04-27T10:48:19.002Z,1.263
2023-04-27T10:50:21.376Z,1.965
2023-04-27T10:52:23.178Z,2.948
2023-04-27T10:54:24.188Z,3.369
2023-04-27T11:00:28.163Z,1.404
2023-04-27T11:02:29.908Z,2.106
2023-04-27T11:05:15.257Z,2.948
2023-04-27T11:11:19.225Z,5.475
2023-04-27T11:15:21.795Z,3.931
2023-04-27T11:17:23.269Z,6.177
2023-04-27T11:21:25.954Z,5.896
2023-04-27T11:25:27.773Z,2.667
2023-04-27T11:27:29.168Z,2.527
2023-04-27T11:31:31.585Z,3.65
2023-04-27T11:37:35.617Z,3.088
2023-04-27T11:41:38.795Z,6.879
2023-04-27T11:43:40.296Z,3.79
2023-04-27T11:47:43.466Z,1.404
2023-04-27T11:53:47.028Z,1.965
2023-04-27T11:57:49.602Z,3.088
2023-04-27T11:59:50.556Z,1.544
2023-04-27T12:03:52.877Z,4.914
2023-04-27T12:09:56.236Z,0
2023-04-27T12:13:58.652Z,2.808
2023-04-27T12:18:00.795Z,1.684
2023-04-27T12:20:02.327Z,2.386
2023-04-27T12:24:04.391Z,3.369
2023-04-27T12:26:05.703Z,3.088
2023-04-27T12:28:07.607Z,1.123
2023-04-27T12:30:09.088Z,3.088
2023-04-27T12:36:13.427Z,3.79
2023-04-27T12:38:14.237Z,3.79
2023-04-27T12:42:16.401Z,1.123
2023-04-27T12:46:18.793Z,0
2023-04-27T12:52:23.161Z,2.948
2023-04-27T12:56:26.614Z,2.948
2023-04-27T12:58:27.704Z,2.106
2023-04-27T13:02:30.304Z,4.212
2023-04-27T13:06:32.610Z,0
2023-04-27T13:08:43.212Z,0.842
2023-04-27T13:12:36.499Z,0.702
2023-04-27T13:18:40.750Z,3.51
2023-04-27T13:22:42.801Z,1.404
2023-04-27T13:24:44.292Z,3.369
2023-04-27T13:28:47.184Z,4.492
2023-04-27T13:30:48.541Z,4.212
2023-04-27T13:34:51.088Z,5.194
2023-04-27T13:38:53.993Z,2.527
2023-04-27T13:40:55.268Z,1.825
2023-04-27T13:44:57.180Z,4.071
2023-04-27T13:51:02.289Z,2.106
2023-04-27T13:55:05.486Z,1.123
2023-04-27T13:57:07.004Z,0.702
2023-04-27T14:01:09.167Z,3.65
2023-04-27T14:07:13.018Z,4.914
2023-04-27T14:11:15.489Z,5.054
2023-04-27T14:13:16.874Z,1.544
2023-04-27T14:17:19.490Z,7.16
2023-04-27T14:21:21.668Z,3.65
2023-04-27T14:23:23.004Z,5.335
2023-04-27T14:27:25.864Z,4.914
2023-04-27T14:33:29.352Z,0.842
2023-04-27T14:37:31.434Z,0.702
2023-04-27T14:39:32.825Z,1.965
2023-04-27T14:43:35.299Z,1.263
2023-04-27T14:49:39.106Z,0
2023-04-27T14:55:42.770Z,0
2023-04-27T14:59:45.696Z,2.386
2023-04-27T15:05:49.164Z,2.386
2023-04-27T15:09:51.079Z,5.194
2023-04-27T15:11:52.075Z,3.51
2023-04-27T15:15:54.854Z,2.527
2023-04-27T15:19:57.328Z,3.79
2023-04-27T15:21:59.048Z,0.14
2023-04-27T15:26:01.229Z,0.14
2023-04-27T15:32:05.396Z,0
2023-04-27T15:38:09.570Z,0
2023-04-27T15:42:12.024Z,2.948
2023-04-27T15:48:16.151Z,0
2023-04-27T15:50:18.057Z,1.263
2023-04-27T15:52:19.017Z,3.51
2023-04-27T15:54:20.333Z,0
2023-04-27T15:58:22.614Z,0
2023-04-27T16:02:24.962Z,0
2023-04-27T16:04:26.028Z,1.684
2023-04-27T16:08:28.575Z,1.404
2023-04-27T16:14:32.085Z,1.684
2023-04-27T16:18:34.505Z,3.65
2023-04-27T16:20:36.672Z,8.002
2023-04-27T16:24:38.665Z,1.123
2023-04-27T16:30:42.368Z,3.65
2023-04-27T16:36:45.550Z,2.948
2023-04-27T16:40:48.551Z,4.633
2023-04-27T16:46:52.438Z,3.65
2023-04-27T16:50:55.851Z,0.982
2023-04-27T16:56:59.897Z,0.561
2023-04-27T17:01:03.099Z,0.702
2023-04-27T17:03:04.103Z,3.369
2023-04-27T17:07:06.857Z,0
2023-04-27T17:13:11.450Z,0.561
2023-04-27T17:19:14.719Z,0
2023-04-27T17:23:16.895Z,3.931
2023-04-27T17:29:21.807Z,1.404
2023-04-27T17:33:24.062Z,2.808
2023-04-27T17:35:25.859Z,3.088
2023-04-27T17:39:29.402Z,4.492
2023-04-27T17:43:31.157Z,3.65
2023-04-27T17:45:32.090Z,1.965
2023-04-27T17:49:35.529Z,0.982
2023-04-27T17:50:19.280Z,0
2023-04-27T17:54:21.412Z,0
2023-04-27T17:56:22.771Z,0
2023-04-27T18:00:25.318Z,0
2023-04-27T18:06:28.692Z,0
2023-04-27T18:10:30.893Z,0
2023-04-27T18:12:32.373Z,0
2023-04-27T18:16:35.281Z,0
2023-04-27T18:20:38.318Z,0
2023-04-27T18:22:39.369Z,1.263
2023-04-27T18:26:41.906Z,2.246
2023-04-27T18:30:44.583Z,0.561
2023-04-27T18:32:46.225Z,0
2023-04-27T18:36:50.189Z,0
2023-04-27T18:38:50.198Z,4.492
2023-04-27T18:40:51.713Z,2.106
2023-04-27T18:42:53.146Z,0.28
2023-04-27T18:48:57.073Z,3.51
2023-04-27T18:50:58.919Z,4.352
2023-04-27T18:55:01.871Z,2.246
2023-04-27T18:59:04.357Z,0
2023-04-27T19:05:12.638Z,0
2023-04-27T19:09:11.668Z,0
2023-04-27T19:11:12.876Z,0
2023-04-27T19:15:15.316Z,0
2023-04-27T19:19:17.562Z,0
2023-04-27T19:21:18.405Z,0
2023-04-27T19:25:21.366Z,0
2023-04-27T19:31:26.288Z,2.808
2023-04-27T19:35:28.621Z,0.14
2023-04-27T19:37:29.813Z,0
2023-04-27T19:41:32.908Z,0
2023-04-27T19:47:36.070Z,1.404
2023-04-27T19:51:38.928Z,0
2023-04-27T19:53:40.329Z,0
2023-04-27T19:57:44.016Z,0.421
2023-04-27T20:01:47.715Z,0
2023-04-27T20:03:49.137Z,0.702
2023-04-27T20:07:52.184Z,0
2023-04-27T20:13:56.304Z,0
2023-04-27T20:17:59.883Z,0
2023-04-27T20:20:01.466Z,0
2023-04-27T20:24:04.292Z,0
2023-04-27T20:30:09.403Z,0
2023-04-27T20:34:25.487Z,0
2023-04-27T20:36:16.928Z,0
2023-04-27T20:40:16.629Z,0
2023-04-27T20:44:19.312Z,0
2023-04-27T20:46:20.529Z,0
2023-04-27T20:50:23.419Z,0
2023-04-27T20:54:26.057Z,0
2023-04-27T20:56:27.826Z,0
2023-04-27T21:00:30.750Z,0
2023-04-27T21:02:32.723Z,0
2023-04-27T21:06:34.820Z,0
2023-04-27T21:12:39.557Z,0
2023-04-27T21:18:44.274Z,0
2023-04-27T21:22:47.209Z,0
2023-04-27T21:26:50.421Z,0
2023-04-27T21:28:52.147Z,0
2023-04-27T21:32:55.165Z,0
2023-04-27T21:36:57.653Z,0
2023-04-27T21:38:59.185Z,0
2023-04-27T21:43:01.894Z,0
2023-04-27T21:45:02.936Z,0
2023-04-27T21:47:04.865Z,0
2023-04-27T21:49:05.959Z,0
2023-04-27T21:55:10.397Z,0
2023-04-27T21:57:11.568Z,0
2023-04-27T22:01:14.559Z,0
2023-04-27T22:05:17.617Z,0
2023-04-27T22:11:22.393Z,0
2023-04-27T22:15:25.537Z,0
2023-04-27T22:17:27.133Z,0
2023-04-27T22:21:30.524Z,0
2023-04-27T22:25:32.565Z,0
2023-04-27T22:27:38.689Z,0
2023-04-27T22:31:37.324Z,0
2023-04-27T22:37:41.211Z,0
2023-04-27T22:43:45.603Z,0
2023-04-27T22:47:48.971Z,0
2023-04-27T22:53:52.992Z,0
2023-04-27T22:57:55.927Z,0
2023-04-27T22:59:56.967Z,0
2023-04-27T23:03:59.943Z,0
2023-04-27T23:08:02.281Z,0
2023-04-27T23:10:03.799Z,0
2023-04-27T23:14:06.922Z,0
2023-04-27T23:20:14.122Z,0
2023-04-27T23:24:14.058Z,0
2023-04-27T23:26:15.073Z,0
2023-04-27T23:30:18.150Z,0
2023-04-27T23:36:23.320Z,0
2023-04-27T23:40:25.833Z,0
2023-04-27T23:42:32.003Z,0
2023-04-27T23:46:29.098Z,0
2023-04-27T23:50:32.070Z,0
2023-04-27T23:52:32.385Z,0
2023-04-27T23:56:35.349Z,0
